TAFOR
Diposting tanggal: 10 Juni 2019

Pukul : 06 - 18 UTC

Isi :

TAF WAGI 180500Z 1806/1818 34005KT 1500 RA FEW009CB BKN010 BECMG 1806/1808 4000 -RA=